Impacts TAF Board INFO
FOR SITUATIONAL AWARENESS. NOT TO BE USED FOR FLIGHT PLANNING PURPOSES.
IDs:

KEYW - Key West Intl, FL, US

Issued at 2328 UTC 17 Feb 2018
Updated at 0457 UTC 18 Feb 2018
Potential Impact None Slight Moderate High
Time0453Z 18/05Z 18/06Z 18/07Z 18/08Z 18/09Z 18/10Z 18/11Z 18/12Z 18/13Z 18/14Z 18/15Z 18/16Z 18/17Z>>
Type OBS PRVL PRVL PRVL PRVL PRVL PRVL PRVL PRVL PRVL PRVL PRVL PRVL PRVL
VIS 10 >6 >6 >6 >6 >6 >6 >6 >6 >6 >6 >6 >6 >6
CIG -- -- -- -- -- -- -- -- -- -- -- -- -- --
Cover CLR FEW SCT SCT SCT SCT SCT SCT SCT SCT SCT SCT SCT SCT
FltCat VFR VFR VFR VFR VFR VFR VFR VFR VFR VFR VFR VFR VFR VFR
WX -- -- -- -- -- -- -- -- -- -- -- VCSH VCSH VCSH
WDir 80 120 80 80 80 80 80 80 80 80 80 100 100 100
WSpd 4 8 7 7 7 7 7 7 7 7 7 12 12 12
WGst -- -- -- -- -- -- -- -- -- -- -- -- -- --

Raw TAF
KEYW 172328Z 1800/1824 12008KT P6SM FEW030
  FM180600 08007KT P6SM SCT030
  FM181500 10012KT P6SM VCSH SCT022 SCT050


Raw METAR
KEYW 180453Z AUTO 08004KT 10SM CLR 24/21 A3020 RMK AO2 SLP224 T02390206 402720222
KEYW 180353Z AUTO 07005KT 10SM CLR 24/20 A3021 RMK AO2 SLP228 T02390200
KEYW 180253Z AUTO 07005KT 10SM CLR 24/20 A3021 RMK AO2 SLP231 T02390200 51010
KEYW 180153Z AUTO 07005KT 10SM CLR 24/20 A3020 RMK AO2 SLP227 T02390200

METAR Board
Radar Display
Forecast Discussion

FOR SITUATIONAL AWARENESS. NOT TO BE USED FOR FLIGHT PLANNING PURPOSES.